createdAt,value
2023-03-17T00:03:30.368Z,67.88
2023-03-17T00:07:34.701Z,68.33
2023-03-17T00:12:14.562Z,68.45
2023-03-17T00:17:00.891Z,68.62
2023-03-17T00:20:20.333Z,69.08
2023-03-17T00:24:01.012Z,69.27
2023-03-17T00:28:01.906Z,69.57
2023-03-17T01:23:43.126Z,71.56
2023-03-17T01:27:49.739Z,71.60
2023-03-17T01:42:55.614Z,72.04
2023-03-17T02:36:22.955Z,74.07
2023-03-17T02:43:33.842Z,74.48
2023-03-17T02:46:51.205Z,74.35
2023-03-17T02:50:09.985Z,74.37
2023-03-17T02:54:06.980Z,74.28
2023-03-17T02:57:36.977Z,74.43
2023-03-17T03:12:20.926Z,74.80
2023-03-17T03:27:45.673Z,74.68
2023-03-17T03:40:11.192Z,75.51
2023-03-17T03:44:09.951Z,75.59
2023-03-17T03:50:33.150Z,75.58
2023-03-17T03:54:09.605Z,75.34
2023-03-17T03:57:40.316Z,75.41
2023-03-17T04:01:14.632Z,75.50
2023-03-17T05:07:27.227Z,76.27
2023-03-17T05:40:30.289Z,75.30
2023-03-17T05:44:07.793Z,75.24
2023-03-17T05:47:52.010Z,75.03
2023-03-17T05:54:13.988Z,74.77
2023-03-17T05:58:15.402Z,74.46
2023-03-17T06:00:57.799Z,74.33
2023-03-17T06:03:25.171Z,74.11
2023-03-17T06:05:52.622Z,73.92
2023-03-17T06:11:33.427Z,73.60
2023-03-17T06:14:01.878Z,73.14
2023-03-17T06:16:32.517Z,72.96
2023-03-17T06:18:59.907Z,72.85
2023-03-17T06:21:27.616Z,72.59
2023-03-17T06:23:54.703Z,72.34
2023-03-17T06:26:37.431Z,72.27
2023-03-17T06:29:09.252Z,72.13
2023-03-17T06:31:51.310Z,72.02
2023-03-17T06:34:20.625Z,71.68
2023-03-17T06:36:48.980Z,71.26
2023-03-17T06:39:17.655Z,70.85
2023-03-17T06:41:45.005Z,70.04
2023-03-17T06:44:12.730Z,69.30
2023-03-17T06:46:40.808Z,69.39
2023-03-17T06:54:39.711Z,68.42
2023-03-17T06:57:22.763Z,68.53
2023-03-17T06:59:52.159Z,68.40
2023-03-17T07:05:05.028Z,67.51
2023-03-17T07:07:35.885Z,67.67
2023-03-17T07:10:05.700Z,66.89
2023-03-17T07:12:33.663Z,66.76
2023-03-17T07:15:01.123Z,66.70
2023-03-17T07:17:29.838Z,66.32
2023-03-17T07:19:57.311Z,65.19
2023-03-17T07:22:25.842Z,65.56
2023-03-17T07:24:53.218Z,65.07
2023-03-17T07:27:37.129Z,64.13
2023-03-17T07:30:08.317Z,64.09
2023-03-17T07:32:37.312Z,64.08
2023-03-17T07:35:06.874Z,64.24
2023-03-17T07:37:36.548Z,64.61
2023-03-17T07:40:07.181Z,64.12
2023-03-17T07:42:35.741Z,63.66
2023-03-17T07:45:07.460Z,63.21
2023-03-17T07:47:39.061Z,63.26
2023-03-17T07:50:12.185Z,62.39
2023-03-17T07:52:41.854Z,61.56
2023-03-17T07:55:12.921Z,61.46
2023-03-17T07:57:41.185Z,61.32
2023-03-17T08:00:10.313Z,60.32
2023-03-17T08:02:37.833Z,60.05
2023-03-17T08:05:07.221Z,59.08
2023-03-17T08:07:36.964Z,59.22
2023-03-17T08:10:07.160Z,59.14
2023-03-17T08:12:35.953Z,59.50
2023-03-17T08:15:04.785Z,59.22
2023-03-17T08:17:32.234Z,58.50
2023-03-17T08:20:00.516Z,58.20
2023-03-17T08:22:29.355Z,56.94
2023-03-17T08:24:56.372Z,57.03
2023-03-17T08:27:23.796Z,56.47
2023-03-17T08:29:51.272Z,57.27
2023-03-17T08:32:18.452Z,55.99
2023-03-17T08:34:45.882Z,55.61
2023-03-17T08:37:13.660Z,55.57
2023-03-17T08:39:41.027Z,54.73
2023-03-17T08:42:08.575Z,54.41
2023-03-17T08:44:36.015Z,53.95
2023-03-17T08:47:04.295Z,53.54
2023-03-17T08:49:34.320Z,52.06
2023-03-17T08:52:16.715Z,52.73
2023-03-17T08:54:43.680Z,52.51
2023-03-17T08:57:11.042Z,51.71
2023-03-17T08:59:38.901Z,50.89
2023-03-17T09:02:06.981Z,50.21
2023-03-17T09:04:37.711Z,49.82
2023-03-17T09:07:09.542Z,50.27
2023-03-17T09:09:37.318Z,50.16
2023-03-17T09:12:07.084Z,49.49
2023-03-17T09:14:43.450Z,49.29
2023-03-17T09:17:13.258Z,49.68
2023-03-17T09:19:41.117Z,48.15
2023-03-17T09:22:13.444Z,48.86
2023-03-17T09:27:21.939Z,46.36
2023-03-17T09:29:48.725Z,45.62
2023-03-17T09:32:15.821Z,46.60
2023-03-17T09:37:24.299Z,47.03
2023-03-17T09:39:51.670Z,46.06
2023-03-17T09:42:33.869Z,46.02
2023-03-17T09:45:33.185Z,46.24
2023-03-17T09:48:17.273Z,44.88
2023-03-17T09:51:11.635Z,44.67
2023-03-17T09:53:42.344Z,44.02
2023-03-17T09:56:16.725Z,43.40
2023-03-17T09:59:16.299Z,43.47
2023-03-17T10:01:43.897Z,43.60
2023-03-17T10:04:11.812Z,42.08
2023-03-17T10:06:46.384Z,43.78
2023-03-17T10:09:41.339Z,43.86
2023-03-17T10:12:16.753Z,43.52
2023-03-17T10:15:10.946Z,43.67
2023-03-17T10:17:42.304Z,43.32
2023-03-17T10:20:29.845Z,43.92
2023-03-17T10:23:04.569Z,44.06
2023-03-17T10:28:32.009Z,44.67
2023-03-17T10:31:16.055Z,45.75
2023-03-17T10:33:49.069Z,46.23
2023-03-17T10:36:31.393Z,45.76
2023-03-17T10:39:19.546Z,43.88
2023-03-17T10:42:10.048Z,43.73
2023-03-17T10:44:54.588Z,43.16
2023-03-17T10:47:32.373Z,44.53
2023-03-17T10:50:18.018Z,43.71
2023-03-17T10:52:48.597Z,43.24
2023-03-17T10:55:21.104Z,42.68
2023-03-17T10:57:56.477Z,42.29
2023-03-17T11:00:26.023Z,42.04
2023-03-17T11:02:58.588Z,42.59
2023-03-17T11:05:29.157Z,42.56
2023-03-17T11:08:20.056Z,42.30
2023-03-17T11:10:56.507Z,41.73
2023-03-17T11:13:30.168Z,41.70
2023-03-17T11:16:21.772Z,41.89
2023-03-17T11:18:55.389Z,42.18
2023-03-17T11:21:30.694Z,42.15
2023-03-17T11:24:25.548Z,41.30
2023-03-17T11:27:23.647Z,41.44
2023-03-17T11:30:27.814Z,41.59
2023-03-17T11:33:33.152Z,41.32
2023-03-17T11:36:30.094Z,41.14
2023-03-17T11:39:36.036Z,40.23
2023-03-17T11:42:23.357Z,39.99
2023-03-17T11:44:56.209Z,40.98
2023-03-17T11:47:36.358Z,40.38
2023-03-17T11:50:35.085Z,40.59
2023-03-17T11:53:44.763Z,40.26
2023-03-17T11:56:30.320Z,39.94
2023-03-17T11:59:13.547Z,40.16
2023-03-17T12:02:00.964Z,39.47
2023-03-17T12:04:51.404Z,39.87
2023-03-17T12:07:36.904Z,39.97
2023-03-17T12:10:24.023Z,40.47
2023-03-17T12:13:39.519Z,39.33
2023-03-17T12:16:28.945Z,39.84
2023-03-17T12:19:12.571Z,40.09
2023-03-17T12:22:10.262Z,39.95
2023-03-17T12:25:05.368Z,39.59
2023-03-17T12:27:42.463Z,39.21
2023-03-17T12:30:35.997Z,39.85
2023-03-17T12:33:53.470Z,38.99
2023-03-17T12:36:22.142Z,39.26
2023-03-17T12:39:05.081Z,38.79
2023-03-17T12:42:20.162Z,39.30
2023-03-17T12:45:07.622Z,38.00
2023-03-17T12:48:08.373Z,39.40
2023-03-17T13:21:46.751Z,37.36
2023-03-17T13:24:51.152Z,36.69
2023-03-17T13:27:31.953Z,36.51
2023-03-17T13:30:22.250Z,37.09
2023-03-17T13:33:23.190Z,38.28
2023-03-17T13:36:15.871Z,37.47
2023-03-17T13:39:20.069Z,36.39
2023-03-17T13:42:18.005Z,36.99
2023-03-17T13:45:20.096Z,37.00
2023-03-17T13:47:49.017Z,36.94
2023-03-17T13:50:32.150Z,37.76
2023-03-17T13:53:09.918Z,38.05
2023-03-17T13:56:01.955Z,37.72
2023-03-17T13:58:48.700Z,38.06
2023-03-17T14:01:18.012Z,38.11
2023-03-17T14:03:55.202Z,37.24
2023-03-17T14:06:30.815Z,38.23
2023-03-17T14:09:07.785Z,39.14
2023-03-17T14:11:40.746Z,39.12
2023-03-17T14:14:33.263Z,38.59
2023-03-17T14:17:29.698Z,38.30
2023-03-17T14:20:23.067Z,38.02
2023-03-17T14:22:59.695Z,38.39
2023-03-17T14:25:33.523Z,38.18
2023-03-17T14:28:22.175Z,37.63
2023-03-17T14:30:54.413Z,37.88
2023-03-17T14:33:28.377Z,37.94
2023-03-17T14:36:01.906Z,38.17
2023-03-17T14:38:55.400Z,38.18
2023-03-17T14:41:28.090Z,38.35
2023-03-17T14:44:01.136Z,37.75
2023-03-17T14:46:38.381Z,37.83
2023-03-17T14:49:20.520Z,38.32
2023-03-17T14:51:53.002Z,38.03
2023-03-17T14:54:26.629Z,37.91
2023-03-17T14:57:06.978Z,37.62
2023-03-17T14:59:38.422Z,37.54
2023-03-17T15:02:37.989Z,37.96
2023-03-17T15:05:24.928Z,37.86
2023-03-17T15:07:52.557Z,37.31
2023-03-17T15:10:34.496Z,37.40
2023-03-17T15:13:05.863Z,37.26
2023-03-17T15:15:37.359Z,37.11
2023-03-17T15:18:12.656Z,36.95
2023-03-17T15:20:44.104Z,37.37
2023-03-17T15:23:21.677Z,37.89
2023-03-17T15:25:57.726Z,37.55
2023-03-17T15:28:30.857Z,38.12
2023-03-17T15:31:13.379Z,38.21
2023-03-17T15:33:41.638Z,37.70
2023-03-17T15:36:31.269Z,37.72
2023-03-17T15:39:01.665Z,38.28
2023-03-17T15:41:28.737Z,37.61
2023-03-17T15:43:56.406Z,37.49
2023-03-17T15:46:33.174Z,37.44
2023-03-17T15:49:00.397Z,37.74
2023-03-17T15:51:27.538Z,37.48
2023-03-17T15:53:54.968Z,38.18
2023-03-17T15:56:22.346Z,38.13
2023-03-17T16:01:33.455Z,38.81
2023-03-17T16:04:01.366Z,38.54
2023-03-17T16:06:28.421Z,39.11
2023-03-17T16:08:55.859Z,39.14
2023-03-17T16:11:27.572Z,39.58
2023-03-17T16:13:57.597Z,39.93
2023-03-17T16:16:41.950Z,39.93
2023-03-17T16:19:22.160Z,40.18
2023-03-17T16:21:49.304Z,40.81
2023-03-17T16:24:21.150Z,41.28
2023-03-17T16:26:49.482Z,41.19
2023-03-17T16:29:19.421Z,41.54
2023-03-17T16:31:49.441Z,41.59
2023-03-17T16:34:30.973Z,42.00
2023-03-17T16:36:57.964Z,42.15
2023-03-17T16:39:25.801Z,42.39
2023-03-17T16:41:52.875Z,42.59
2023-03-17T16:44:21.377Z,42.66
2023-03-17T16:46:48.692Z,42.79
2023-03-17T16:49:19.257Z,42.91
2023-03-17T16:51:46.197Z,43.15
2023-03-17T16:54:13.474Z,43.43
2023-03-17T16:56:41.875Z,43.66
2023-03-17T16:59:21.098Z,44.03
2023-03-17T17:01:47.901Z,44.24
2023-03-17T17:04:15.001Z,44.76
2023-03-17T17:06:41.823Z,45.06
2023-03-17T17:09:23.881Z,45.40
2023-03-17T17:11:50.846Z,45.59
2023-03-17T17:14:17.802Z,45.81
2023-03-17T17:16:46.298Z,46.09
2023-03-17T17:21:58.668Z,46.65
2023-03-17T17:24:25.773Z,47.04
2023-03-17T17:26:52.746Z,47.46
2023-03-17T17:29:20.041Z,47.77
2023-03-17T17:31:47.214Z,48.20
2023-03-17T17:37:25.276Z,48.69
2023-03-17T17:39:52.896Z,49.00
2023-03-17T17:42:20.806Z,49.27
2023-03-17T17:45:02.456Z,49.62
2023-03-17T17:47:32.150Z,49.90
2023-03-17T17:50:00.160Z,50.13
2023-03-17T17:52:27.105Z,50.25
2023-03-17T17:54:54.109Z,50.46
2023-03-17T17:57:21.060Z,50.86
2023-03-17T17:59:47.991Z,50.83
2023-03-17T18:02:15.123Z,51.23
2023-03-17T18:04:42.208Z,51.44
2023-03-17T18:07:09.403Z,51.73
2023-03-17T18:09:36.280Z,51.87
2023-03-17T18:12:04.130Z,52.27
2023-03-17T18:14:31.441Z,52.39
2023-03-17T18:16:58.436Z,52.54
2023-03-17T18:19:25.571Z,52.52
2023-03-17T18:21:52.419Z,52.74
2023-03-17T18:24:19.721Z,52.88
2023-03-17T18:29:28.273Z,53.20
2023-03-17T18:31:55.500Z,53.38
2023-03-17T18:34:29.321Z,53.63
2023-03-17T18:37:00.263Z,53.84
2023-03-17T18:39:29.251Z,54.13
2023-03-17T18:41:56.555Z,54.29
2023-03-17T18:44:24.523Z,54.50
2023-03-17T18:46:51.645Z,54.56
2023-03-17T18:49:18.567Z,54.51
2023-03-17T18:51:45.534Z,54.52
2023-03-17T18:54:13.042Z,54.55
2023-03-17T18:59:36.089Z,54.58
2023-03-17T19:02:03.330Z,54.67
2023-03-17T19:04:30.447Z,54.80
2023-03-17T19:06:57.631Z,54.86
2023-03-17T19:09:24.896Z,55.11
2023-03-17T19:11:52.047Z,55.09
2023-03-17T19:14:18.889Z,55.21
2023-03-17T19:16:46.198Z,55.33
2023-03-17T19:19:13.148Z,55.35
2023-03-17T19:21:39.860Z,55.49
2023-03-17T19:24:07.947Z,55.41
2023-03-17T19:26:34.926Z,55.52
2023-03-17T19:29:16.598Z,55.59
2023-03-17T19:31:43.802Z,55.74
2023-03-17T19:34:13.619Z,55.77
2023-03-17T19:36:45.277Z,55.81
2023-03-17T19:39:13.953Z,55.82
2023-03-17T19:41:40.855Z,55.62
2023-03-17T19:44:07.812Z,55.56
2023-03-17T19:46:37.091Z,55.67
2023-03-17T19:49:04.325Z,55.72
2023-03-17T19:51:32.661Z,55.56
2023-03-17T19:54:00.182Z,55.68
2023-03-17T19:56:27.584Z,55.77
2023-03-17T19:58:55.556Z,56.00
2023-03-17T20:01:23.076Z,56.07
2023-03-17T20:03:50.409Z,56.23
2023-03-17T20:06:17.763Z,56.33
2023-03-17T20:08:45.479Z,56.26
2023-03-17T20:11:13.489Z,56.21
2023-03-17T20:13:40.785Z,56.19
2023-03-17T20:16:09.006Z,56.22
2023-03-17T20:18:36.294Z,56.13
2023-03-17T20:21:07.604Z,56.12
2023-03-17T20:23:36.172Z,56.10
2023-03-17T20:26:19.496Z,55.93
2023-03-17T20:32:04.976Z,55.89
2023-03-17T20:34:47.253Z,55.80
2023-03-17T20:37:29.534Z,55.62
2023-03-17T20:39:57.910Z,55.53
2023-03-17T20:42:26.636Z,55.66
2023-03-17T20:44:54.916Z,55.70
2023-03-17T20:47:23.492Z,55.78
2023-03-17T20:49:53.346Z,55.86
2023-03-17T20:52:37.243Z,55.95
2023-03-17T20:58:16.475Z,55.90
2023-03-17T21:06:39.870Z,56.09
2023-03-17T21:09:22.228Z,56.16
2023-03-17T21:11:51.029Z,56.39
2023-03-17T21:14:34.250Z,56.67
2023-03-17T21:17:04.052Z,56.78
2023-03-17T21:22:43.233Z,56.83
2023-03-17T21:25:11.826Z,56.75
2023-03-17T21:27:41.545Z,56.85
2023-03-17T21:33:20.170Z,57.10
2023-03-17T21:36:03.356Z,57.39
2023-03-17T21:38:32.342Z,57.43
2023-03-17T21:41:33.398Z,57.53
2023-03-17T21:44:03.579Z,57.74
2023-03-17T21:46:33.719Z,57.84
2023-03-17T21:49:17.302Z,57.95
2023-03-17T21:51:59.765Z,57.99
2023-03-17T21:54:28.697Z,57.75
2023-03-17T22:00:11.785Z,57.36
2023-03-17T22:02:41.928Z,57.26
2023-03-17T22:05:23.994Z,57.33
2023-03-17T22:08:06.712Z,57.59
2023-03-17T22:10:49.167Z,57.79
2023-03-17T22:13:31.521Z,58.02
2023-03-17T22:16:16.210Z,58.15
2023-03-17T22:18:58.580Z,58.27
2023-03-17T22:21:41.342Z,58.43
2023-03-17T22:24:10.283Z,58.59
2023-03-17T22:26:53.202Z,58.59
2023-03-17T22:29:35.558Z,58.58
2023-03-17T22:32:04.747Z,58.52
2023-03-17T22:34:33.889Z,58.56
2023-03-17T22:37:16.029Z,58.67
2023-03-17T22:39:44.871Z,58.65
2023-03-17T22:42:26.810Z,58.67
2023-03-17T22:45:12.673Z,58.68
2023-03-17T22:47:56.253Z,58.63
2023-03-17T22:50:38.393Z,58.60
2023-03-17T22:53:21.249Z,58.61
2023-03-17T22:56:04.570Z,58.47
2023-03-17T22:58:48.137Z,58.50
2023-03-17T23:03:00.611Z,58.59
2023-03-17T23:11:49.134Z,58.48
2023-03-17T23:16:38.576Z,58.25
2023-03-17T23:20:44.627Z,58.47
2023-03-17T23:24:00.062Z,58.40
2023-03-17T23:27:15.689Z,58.25
2023-03-17T23:44:41.237Z,57.41
2023-03-17T23:48:06.446Z,57.30
2023-03-17T23:55:00.041Z,57.10
2023-03-17T23:59:59.684Z,56.77
